Terminal Aerodrome Forecast
Issued by NWS

Home | Current Version | Previous Version | Text Only | Print | Product List | Glossary On
Versions: 1 2 3 4 5 6 7 8 9 10 11 12 13 14 15 16 17 18 19 20 21 22
000
FTUS43 KDLH 200500
TAFHYR
TAF
KHYR 200534Z 2006/2106 16005KT P6SM OVC018
     FM200800 15005KT 4SM BR SCT008 OVC013
     FM201100 15006KT 2SM -FZDZ BR OVC007
     FM201800 17006KT 5SM -FZDZ BR BKN009 OVC014
     FM202200 19005KT 6SM BR OVC018=

USA.gov is the U.S. government's official web portal to all federal, state and local government web resources and services.